sensor_id;sensor_type;location;lat;lon;timestamp;temperature;humidity
71039;SHT30;58692;43.212;27.908;2023-06-22T00:01:48;21.62;86.05
71039;SHT30;58692;43.212;27.908;2023-06-22T00:04:13;21.61;86.59
71039;SHT30;58692;43.212;27.908;2023-06-22T00:06:39;21.55;86.18
71039;SHT30;58692;43.212;27.908;2023-06-22T00:09:04;21.51;86.42
71039;SHT30;58692;43.212;27.908;2023-06-22T00:11:32;21.48;86.30
71039;SHT30;58692;43.212;27.908;2023-06-22T00:13:58;21.51;86.37
71039;SHT30;58692;43.212;27.908;2023-06-22T00:16:24;21.42;86.48
71039;SHT30;58692;43.212;27.908;2023-06-22T00:18:49;21.42;86.50
71039;SHT30;58692;43.212;27.908;2023-06-22T00:21:15;21.44;86.41
71039;SHT30;58692;43.212;27.908;2023-06-22T00:23:40;21.32;86.65
71039;SHT30;58692;43.212;27.908;2023-06-22T00:26:06;21.27;86.74
71039;SHT30;58692;43.212;27.908;2023-06-22T00:28:32;21.32;86.66
71039;SHT30;58692;43.212;27.908;2023-06-22T00:30:57;21.34;86.62
71039;SHT30;58692;43.212;27.908;2023-06-22T00:33:23;21.30;86.94
71039;SHT30;58692;43.212;27.908;2023-06-22T00:35:48;21.32;86.87
71039;SHT30;58692;43.212;27.908;2023-06-22T00:38:17;21.30;87.21
71039;SHT30;58692;43.212;27.908;2023-06-22T00:40:43;21.28;87.19
71039;SHT30;58692;43.212;27.908;2023-06-22T00:43:09;21.25;87.48
71039;SHT30;58692;43.212;27.908;2023-06-22T00:45:34;21.17;87.74
71039;SHT30;58692;43.212;27.908;2023-06-22T00:48:01;21.11;88.12
71039;SHT30;58692;43.212;27.908;2023-06-22T00:50:30;20.87;89.33
71039;SHT30;58692;43.212;27.908;2023-06-22T00:53:00;20.93;89.26
71039;SHT30;58692;43.212;27.908;2023-06-22T00:55:26;20.87;89.34
71039;SHT30;58692;43.212;27.908;2023-06-22T00:57:53;20.93;89.41
71039;SHT30;58692;43.212;27.908;2023-06-22T01:00:22;21.04;88.97
71039;SHT30;58692;43.212;27.908;2023-06-22T01:02:51;20.97;89.08
71039;SHT30;58692;43.212;27.908;2023-06-22T01:05:20;21.05;88.62
71039;SHT30;58692;43.212;27.908;2023-06-22T01:10:50;20.93;89.45
71039;SHT30;58692;43.212;27.908;2023-06-22T01:13:35;20.95;89.07
71039;SHT30;58692;43.212;27.908;2023-06-22T01:16:07;20.85;89.38
71039;SHT30;58692;43.212;27.908;2023-06-22T01:18:35;20.84;89.34
71039;SHT30;58692;43.212;27.908;2023-06-22T01:21:04;20.83;88.87
71039;SHT30;58692;43.212;27.908;2023-06-22T01:24:01;20.91;88.52
71039;SHT30;58692;43.212;27.908;2023-06-22T01:26:31;21.01;87.89
71039;SHT30;58692;43.212;27.908;2023-06-22T01:29:01;21.10;87.61
71039;SHT30;58692;43.212;27.908;2023-06-22T01:31:28;21.01;87.23
71039;SHT30;58692;43.212;27.908;2023-06-22T01:33:58;20.98;87.22
71039;SHT30;58692;43.212;27.908;2023-06-22T01:36:25;21.05;86.61
71039;SHT30;58692;43.212;27.908;2023-06-22T01:38:52;20.81;87.97
71039;SHT30;58692;43.212;27.908;2023-06-22T01:41:19;20.64;88.89
71039;SHT30;58692;43.212;27.908;2023-06-22T01:43:46;20.71;87.34
71039;SHT30;58692;43.212;27.908;2023-06-22T01:46:12;20.74;86.78
71039;SHT30;58692;43.212;27.908;2023-06-22T01:48:38;20.83;86.25
71039;SHT30;58692;43.212;27.908;2023-06-22T01:51:04;20.91;85.97
71039;SHT30;58692;43.212;27.908;2023-06-22T01:53:30;20.91;85.24
71039;SHT30;58692;43.212;27.908;2023-06-22T01:55:56;21.01;84.97
71039;SHT30;58692;43.212;27.908;2023-06-22T01:58:26;21.17;84.08
71039;SHT30;58692;43.212;27.908;2023-06-22T02:00:58;21.20;84.09
71039;SHT30;58692;43.212;27.908;2023-06-22T02:03:30;21.24;83.60
71039;SHT30;58692;43.212;27.908;2023-06-22T02:06:03;21.22;83.79
71039;SHT30;58692;43.212;27.908;2023-06-22T02:08:33;21.25;83.32
71039;SHT30;58692;43.212;27.908;2023-06-22T02:11:00;21.27;83.54
71039;SHT30;58692;43.212;27.908;2023-06-22T02:13:28;21.31;85.25
71039;SHT30;58692;43.212;27.908;2023-06-22T02:15:53;21.30;85.31
71039;SHT30;58692;43.212;27.908;2023-06-22T02:18:19;21.38;85.27
71039;SHT30;58692;43.212;27.908;2023-06-22T02:20:45;21.35;85.34
71039;SHT30;58692;43.212;27.908;2023-06-22T02:23:11;21.35;84.47
71039;SHT30;58692;43.212;27.908;2023-06-22T02:25:36;21.27;84.87
71039;SHT30;58692;43.212;27.908;2023-06-22T02:28:03;21.25;84.66
71039;SHT30;58692;43.212;27.908;2023-06-22T02:30:29;21.21;84.46
71039;SHT30;58692;43.212;27.908;2023-06-22T02:32:54;21.04;85.56
71039;SHT30;58692;43.212;27.908;2023-06-22T02:35:26;21.18;84.67
71039;SHT30;58692;43.212;27.908;2023-06-22T02:37:51;21.11;84.98
71039;SHT30;58692;43.212;27.908;2023-06-22T02:40:17;21.21;84.73
71039;SHT30;58692;43.212;27.908;2023-06-22T02:42:43;21.31;84.31
71039;SHT30;58692;43.212;27.908;2023-06-22T02:45:08;21.31;84.50
71039;SHT30;58692;43.212;27.908;2023-06-22T02:47:34;21.32;85.03
71039;SHT30;58692;43.212;27.908;2023-06-22T02:50:00;21.38;84.67
71039;SHT30;58692;43.212;27.908;2023-06-22T02:52:26;21.30;84.77
71039;SHT30;58692;43.212;27.908;2023-06-22T02:54:51;21.21;86.00
71039;SHT30;58692;43.212;27.908;2023-06-22T02:57:17;21.20;86.11
71039;SHT30;58692;43.212;27.908;2023-06-22T02:59:43;21.28;86.05
71039;SHT30;58692;43.212;27.908;2023-06-22T03:02:09;21.38;85.07
71039;SHT30;58692;43.212;27.908;2023-06-22T03:04:35;21.38;85.25
71039;SHT30;58692;43.212;27.908;2023-06-22T03:07:01;21.32;85.24
71039;SHT30;58692;43.212;27.908;2023-06-22T03:09:27;21.44;85.24
71039;SHT30;58692;43.212;27.908;2023-06-22T03:11:54;21.44;84.81
71039;SHT30;58692;43.212;27.908;2023-06-22T03:14:19;21.39;85.13
71039;SHT30;58692;43.212;27.908;2023-06-22T03:16:45;21.46;84.80
71039;SHT30;58692;43.212;27.908;2023-06-22T03:19:11;21.46;84.87
71039;SHT30;58692;43.212;27.908;2023-06-22T03:21:37;21.37;85.59
71039;SHT30;58692;43.212;27.908;2023-06-22T03:24:04;21.48;84.60
71039;SHT30;58692;43.212;27.908;2023-06-22T03:26:30;21.56;83.95
71039;SHT30;58692;43.212;27.908;2023-06-22T03:28:55;21.67;84.00
71039;SHT30;58692;43.212;27.908;2023-06-22T03:31:21;21.41;84.41
71039;SHT30;58692;43.212;27.908;2023-06-22T03:33:48;21.69;82.92
71039;SHT30;58692;43.212;27.908;2023-06-22T03:36:14;21.93;82.39
71039;SHT30;58692;43.212;27.908;2023-06-22T03:38:45;21.82;81.76
71039;SHT30;58692;43.212;27.908;2023-06-22T03:41:11;21.96;81.18
71039;SHT30;58692;43.212;27.908;2023-06-22T03:43:36;22.03;81.01
71039;SHT30;58692;43.212;27.908;2023-06-22T03:46:02;22.43;79.93
71039;SHT30;58692;43.212;27.908;2023-06-22T03:48:27;22.44;79.97
71039;SHT30;58692;43.212;27.908;2023-06-22T03:50:53;22.51;80.14
71039;SHT30;58692;43.212;27.908;2023-06-22T03:53:19;22.83;78.93
71039;SHT30;58692;43.212;27.908;2023-06-22T03:55:50;22.70;79.57
71039;SHT30;58692;43.212;27.908;2023-06-22T03:58:17;22.36;80.08
71039;SHT30;58692;43.212;27.908;2023-06-22T04:00:45;22.51;79.37
71039;SHT30;58692;43.212;27.908;2023-06-22T04:03:11;22.27;77.49
71039;SHT30;58692;43.212;27.908;2023-06-22T04:05:38;22.43;78.19
71039;SHT30;58692;43.212;27.908;2023-06-22T04:08:05;22.50;78.50
71039;SHT30;58692;43.212;27.908;2023-06-22T04:10:30;22.61;77.92
71039;SHT30;58692;43.212;27.908;2023-06-22T04:12:55;22.75;77.32
71039;SHT30;58692;43.212;27.908;2023-06-22T04:15:21;22.80;77.38
71039;SHT30;58692;43.212;27.908;2023-06-22T04:17:47;22.71;77.85
71039;SHT30;58692;43.212;27.908;2023-06-22T04:20:13;22.81;77.02
71039;SHT30;58692;43.212;27.908;2023-06-22T04:22:39;22.83;77.29
71039;SHT30;58692;43.212;27.908;2023-06-22T04:25:05;22.75;78.11
71039;SHT30;58692;43.212;27.908;2023-06-22T04:27:33;22.90;77.75
71039;SHT30;58692;43.212;27.908;2023-06-22T04:30:03;23.05;77.62
71039;SHT30;58692;43.212;27.908;2023-06-22T04:32:29;23.18;76.97
71039;SHT30;58692;43.212;27.908;2023-06-22T04:34:54;23.63;76.78
71039;SHT30;58692;43.212;27.908;2023-06-22T04:37:20;23.77;75.67
71039;SHT30;58692;43.212;27.908;2023-06-22T04:39:48;23.60;76.06
71039;SHT30;58692;43.212;27.908;2023-06-22T04:42:14;24.21;74.54
71039;SHT30;58692;43.212;27.908;2023-06-22T04:44:40;24.69;73.27
71039;SHT30;58692;43.212;27.908;2023-06-22T04:47:07;24.75;72.80
71039;SHT30;58692;43.212;27.908;2023-06-22T04:49:34;24.60;72.99
71039;SHT30;58692;43.212;27.908;2023-06-22T04:52:05;24.95;72.52
71039;SHT30;58692;43.212;27.908;2023-06-22T04:54:30;25.42;70.86
71039;SHT30;58692;43.212;27.908;2023-06-22T04:57:02;25.59;70.55
71039;SHT30;58692;43.212;27.908;2023-06-22T04:59:28;25.29;71.07
71039;SHT30;58692;43.212;27.908;2023-06-22T05:02:01;25.54;67.59
71039;SHT30;58692;43.212;27.908;2023-06-22T05:04:32;25.86;69.48
71039;SHT30;58692;43.212;27.908;2023-06-22T05:06:58;26.11;68.17
71039;SHT30;58692;43.212;27.908;2023-06-22T05:09:24;26.30;67.30
71039;SHT30;58692;43.212;27.908;2023-06-22T05:12:01;27.00;65.88
71039;SHT30;58692;43.212;27.908;2023-06-22T05:14:29;27.10;65.26
71039;SHT30;58692;43.212;27.908;2023-06-22T05:17:29;27.26;65.34
71039;SHT30;58692;43.212;27.908;2023-06-22T05:19:57;26.72;66.48
71039;SHT30;58692;43.212;27.908;2023-06-22T05:22:26;26.71;67.57
71039;SHT30;58692;43.212;27.908;2023-06-22T05:24:51;26.92;65.85
71039;SHT30;58692;43.212;27.908;2023-06-22T05:27:17;26.18;66.97
71039;SHT30;58692;43.212;27.908;2023-06-22T05:29:43;26.55;66.76
71039;SHT30;58692;43.212;27.908;2023-06-22T05:32:09;26.79;65.08
71039;SHT30;58692;43.212;27.908;2023-06-22T05:34:34;26.75;65.82
71039;SHT30;58692;43.212;27.908;2023-06-22T05:37:00;27.00;65.05
71039;SHT30;58692;43.212;27.908;2023-06-22T05:39:26;27.70;63.94
71039;SHT30;58692;43.212;27.908;2023-06-22T05:41:51;27.71;63.14
71039;SHT30;58692;43.212;27.908;2023-06-22T05:44:18;27.93;63.14
71039;SHT30;58692;43.212;27.908;2023-06-22T05:46:44;28.00;63.36
71039;SHT30;58692;43.212;27.908;2023-06-22T05:49:12;27.98;61.85
71039;SHT30;58692;43.212;27.908;2023-06-22T05:51:38;27.81;62.60
71039;SHT30;58692;43.212;27.908;2023-06-22T05:54:04;27.58;63.05
71039;SHT30;58692;43.212;27.908;2023-06-22T05:56:29;27.76;62.51
71039;SHT30;58692;43.212;27.908;2023-06-22T05:58:58;28.11;62.41
71039;SHT30;58692;43.212;27.908;2023-06-22T06:01:24;27.85;62.67
71039;SHT30;58692;43.212;27.908;2023-06-22T06:03:51;28.32;62.70
71039;SHT30;58692;43.212;27.908;2023-06-22T06:06:18;28.58;60.99
71039;SHT30;58692;43.212;27.908;2023-06-22T06:08:54;28.46;61.33
71039;SHT30;58692;43.212;27.908;2023-06-22T06:11:22;29.16;60.13
71039;SHT30;58692;43.212;27.908;2023-06-22T06:13:48;28.84;60.68
71039;SHT30;58692;43.212;27.908;2023-06-22T06:16:17;28.96;59.34
71039;SHT30;58692;43.212;27.908;2023-06-22T06:18:46;28.99;60.04
71039;SHT30;58692;43.212;27.908;2023-06-22T06:21:15;28.58;60.36
71039;SHT30;58692;43.212;27.908;2023-06-22T06:23:40;29.50;58.66
71039;SHT30;58692;43.212;27.908;2023-06-22T06:26:06;30.21;57.35
71039;SHT30;58692;43.212;27.908;2023-06-22T06:28:32;30.13;57.12
71039;SHT30;58692;43.212;27.908;2023-06-22T06:30:59;30.73;55.75
71039;SHT30;58692;43.212;27.908;2023-06-22T06:33:24;31.04;54.80
71039;SHT30;58692;43.212;27.908;2023-06-22T06:35:50;31.07;54.84
71039;SHT30;58692;43.212;27.908;2023-06-22T06:38:15;30.74;55.15
71039;SHT30;58692;43.212;27.908;2023-06-22T06:40:47;30.83;54.22
71039;SHT30;58692;43.212;27.908;2023-06-22T06:43:14;31.55;52.95
71039;SHT30;58692;43.212;27.908;2023-06-22T06:45:39;31.57;53.27
71039;SHT30;58692;43.212;27.908;2023-06-22T06:48:05;31.96;51.79
71039;SHT30;58692;43.212;27.908;2023-06-22T06:50:31;32.28;51.06
71039;SHT30;58692;43.212;27.908;2023-06-22T06:52:56;32.67;50.61
71039;SHT30;58692;43.212;27.908;2023-06-22T06:55:24;32.39;49.51
71039;SHT30;58692;43.212;27.908;2023-06-22T06:57:50;31.96;48.79
71039;SHT30;58692;43.212;27.908;2023-06-22T07:00:18;31.47;50.34
71039;SHT30;58692;43.212;27.908;2023-06-22T07:02:44;31.85;50.41
71039;SHT30;58692;43.212;27.908;2023-06-22T07:05:11;30.22;55.50
71039;SHT30;58692;43.212;27.908;2023-06-22T07:07:39;30.23;55.35
71039;SHT30;58692;43.212;27.908;2023-06-22T07:10:11;30.11;56.30
71039;SHT30;58692;43.212;27.908;2023-06-22T07:12:37;30.39;54.49
71039;SHT30;58692;43.212;27.908;2023-06-22T07:15:15;29.53;56.75
71039;SHT30;58692;43.212;27.908;2023-06-22T07:17:50;29.98;55.18
71039;SHT30;58692;43.212;27.908;2023-06-22T07:20:15;30.19;54.12
71039;SHT30;58692;43.212;27.908;2023-06-22T07:22:44;30.72;53.03
71039;SHT30;58692;43.212;27.908;2023-06-22T07:25:10;30.22;53.72
71039;SHT30;58692;43.212;27.908;2023-06-22T07:27:44;30.77;52.54
71039;SHT30;58692;43.212;27.908;2023-06-22T07:30:16;31.34;52.37
71039;SHT30;58692;43.212;27.908;2023-06-22T07:32:42;31.35;51.30
71039;SHT30;58692;43.212;27.908;2023-06-22T07:35:08;31.33;50.74
71039;SHT30;58692;43.212;27.908;2023-06-22T07:37:36;31.67;50.31
71039;SHT30;58692;43.212;27.908;2023-06-22T07:40:02;31.39;50.52
71039;SHT30;58692;43.212;27.908;2023-06-22T07:42:31;31.65;49.94
71039;SHT30;58692;43.212;27.908;2023-06-22T07:44:58;31.88;49.32
71039;SHT30;58692;43.212;27.908;2023-06-22T07:47:24;31.49;50.03
71039;SHT30;58692;43.212;27.908;2023-06-22T07:49:51;31.92;49.84
71039;SHT30;58692;43.212;27.908;2023-06-22T07:52:20;32.53;48.67
71039;SHT30;58692;43.212;27.908;2023-06-22T07:54:49;32.12;48.97
71039;SHT30;58692;43.212;27.908;2023-06-22T07:57:14;31.85;49.95
71039;SHT30;58692;43.212;27.908;2023-06-22T07:59:49;32.09;49.15
71039;SHT30;58692;43.212;27.908;2023-06-22T08:02:17;32.44;49.03
71039;SHT30;58692;43.212;27.908;2023-06-22T08:04:42;31.99;50.55
71039;SHT30;58692;43.212;27.908;2023-06-22T08:07:08;32.05;50.71
71039;SHT30;58692;43.212;27.908;2023-06-22T08:09:35;31.77;51.50
71039;SHT30;58692;43.212;27.908;2023-06-22T08:12:04;31.38;52.88
71039;SHT30;58692;43.212;27.908;2023-06-22T08:14:30;31.31;53.66
71039;SHT30;58692;43.212;27.908;2023-06-22T08:16:56;31.75;52.76
71039;SHT30;58692;43.212;27.908;2023-06-22T08:19:21;31.44;52.77
71039;SHT30;58692;43.212;27.908;2023-06-22T08:21:47;31.48;53.26
71039;SHT30;58692;43.212;27.908;2023-06-22T08:24:12;31.82;53.06
71039;SHT30;58692;43.212;27.908;2023-06-22T08:26:38;31.57;53.05
71039;SHT30;58692;43.212;27.908;2023-06-22T08:29:04;31.72;52.19
71039;SHT30;58692;43.212;27.908;2023-06-22T08:31:31;31.75;52.99
71039;SHT30;58692;43.212;27.908;2023-06-22T08:34:00;32.13;51.03
71039;SHT30;58692;43.212;27.908;2023-06-22T08:36:25;29.85;55.23
71039;SHT30;58692;43.212;27.908;2023-06-22T08:38:54;30.33;55.41
71039;SHT30;58692;43.212;27.908;2023-06-22T08:41:28;29.84;57.08
71039;SHT30;58692;43.212;27.908;2023-06-22T08:43:53;29.97;56.37
71039;SHT30;58692;43.212;27.908;2023-06-22T08:46:19;30.70;54.95
71039;SHT30;58692;43.212;27.908;2023-06-22T08:48:48;30.94;54.15
71039;SHT30;58692;43.212;27.908;2023-06-22T08:51:14;29.41;57.78
71039;SHT30;58692;43.212;27.908;2023-06-22T08:53:39;29.88;56.64
71039;SHT30;58692;43.212;27.908;2023-06-22T08:56:05;30.86;55.20
71039;SHT30;58692;43.212;27.908;2023-06-22T08:58:30;30.57;54.97
71039;SHT30;58692;43.212;27.908;2023-06-22T09:00:56;31.04;54.54
71039;SHT30;58692;43.212;27.908;2023-06-22T09:03:23;30.11;55.71
71039;SHT30;58692;43.212;27.908;2023-06-22T09:05:51;29.81;56.51
71039;SHT30;58692;43.212;27.908;2023-06-22T09:08:17;29.47;57.96
71039;SHT30;58692;43.212;27.908;2023-06-22T09:10:42;29.29;58.48
71039;SHT30;58692;43.212;27.908;2023-06-22T09:13:11;29.62;58.31
71039;SHT30;58692;43.212;27.908;2023-06-22T09:15:36;29.67;58.28
71039;SHT30;58692;43.212;27.908;2023-06-22T09:18:02;29.11;58.12
71039;SHT30;58692;43.212;27.908;2023-06-22T09:20:28;30.23;56.92
71039;SHT30;58692;43.212;27.908;2023-06-22T09:22:53;29.93;57.53
71039;SHT30;58692;43.212;27.908;2023-06-22T09:25:19;29.86;58.05
71039;SHT30;58692;43.212;27.908;2023-06-22T09:27:46;30.45;57.32
71039;SHT30;58692;43.212;27.908;2023-06-22T09:30:12;29.98;58.66
71039;SHT30;58692;43.212;27.908;2023-06-22T09:32:55;29.62;60.36
71039;SHT30;58692;43.212;27.908;2023-06-22T09:35:20;29.44;61.31
71039;SHT30;58692;43.212;27.908;2023-06-22T09:37:46;30.09;59.95
71039;SHT30;58692;43.212;27.908;2023-06-22T09:40:12;29.81;61.13
71039;SHT30;58692;43.212;27.908;2023-06-22T09:42:38;28.66;63.62
71039;SHT30;58692;43.212;27.908;2023-06-22T09:45:05;29.19;63.78
71039;SHT30;58692;43.212;27.908;2023-06-22T09:47:31;30.11;62.19
71039;SHT30;58692;43.212;27.908;2023-06-22T09:49:56;31.07;59.57
71039;SHT30;58692;43.212;27.908;2023-06-22T09:52:24;30.33;60.69
71039;SHT30;58692;43.212;27.908;2023-06-22T09:54:50;30.56;60.10
71039;SHT30;58692;43.212;27.908;2023-06-22T09:57:16;30.69;59.60
71039;SHT30;58692;43.212;27.908;2023-06-22T09:59:41;30.67;59.91
71039;SHT30;58692;43.212;27.908;2023-06-22T10:02:07;30.66;59.68
71039;SHT30;58692;43.212;27.908;2023-06-22T10:04:34;31.14;58.06
71039;SHT30;58692;43.212;27.908;2023-06-22T10:07:00;30.18;59.21
71039;SHT30;58692;43.212;27.908;2023-06-22T10:09:26;29.97;59.22
71039;SHT30;58692;43.212;27.908;2023-06-22T10:11:52;29.86;58.98
71039;SHT30;58692;43.212;27.908;2023-06-22T10:14:18;29.97;60.06
71039;SHT30;58692;43.212;27.908;2023-06-22T10:16:44;29.97;59.90
71039;SHT30;58692;43.212;27.908;2023-06-22T10:19:09;30.46;58.18
71039;SHT30;58692;43.212;27.908;2023-06-22T10:21:35;30.66;56.38
71039;SHT30;58692;43.212;27.908;2023-06-22T10:24:01;30.33;56.86
71039;SHT30;58692;43.212;27.908;2023-06-22T10:26:32;30.53;56.12
71039;SHT30;58692;43.212;27.908;2023-06-22T10:28:58;31.16;55.64
71039;SHT30;58692;43.212;27.908;2023-06-22T10:31:23;31.35;54.59
71039;SHT30;58692;43.212;27.908;2023-06-22T10:33:49;32.05;52.49
71039;SHT30;58692;43.212;27.908;2023-06-22T10:36:15;32.39;52.99
71039;SHT30;58692;43.212;27.908;2023-06-22T10:38:40;31.75;54.61
71039;SHT30;58692;43.212;27.908;2023-06-22T10:41:06;31.21;56.99
71039;SHT30;58692;43.212;27.908;2023-06-22T10:43:33;31.08;58.58
71039;SHT30;58692;43.212;27.908;2023-06-22T10:45:59;31.55;58.63
71039;SHT30;58692;43.212;27.908;2023-06-22T10:48:24;30.66;61.58
71039;SHT30;58692;43.212;27.908;2023-06-22T10:50:53;29.58;64.90
71039;SHT30;58692;43.212;27.908;2023-06-22T10:53:20;30.40;63.30
71039;SHT30;58692;43.212;27.908;2023-06-22T10:55:45;30.70;62.45
71039;SHT30;58692;43.212;27.908;2023-06-22T10:58:11;30.55;62.57
71039;SHT30;58692;43.212;27.908;2023-06-22T11:00:36;29.97;63.62
71039;SHT30;58692;43.212;27.908;2023-06-22T11:03:02;30.18;63.75
71039;SHT30;58692;43.212;27.908;2023-06-22T11:05:27;30.42;63.08
71039;SHT30;58692;43.212;27.908;2023-06-22T11:07:53;29.78;64.84
71039;SHT30;58692;43.212;27.908;2023-06-22T11:10:18;28.41;68.57
71039;SHT30;58692;43.212;27.908;2023-06-22T11:12:44;27.65;70.31
71039;SHT30;58692;43.212;27.908;2023-06-22T11:15:09;27.60;71.58
71039;SHT30;58692;43.212;27.908;2023-06-22T11:17:35;27.37;70.62
71039;SHT30;58692;43.212;27.908;2023-06-22T11:20:01;27.19;72.57
71039;SHT30;58692;43.212;27.908;2023-06-22T11:22:29;27.87;70.78
71039;SHT30;58692;43.212;27.908;2023-06-22T11:24:58;28.53;69.18
71039;SHT30;58692;43.212;27.908;2023-06-22T11:27:24;28.92;68.29
71039;SHT30;58692;43.212;27.908;2023-06-22T11:29:49;29.03;67.89
71039;SHT30;58692;43.212;27.908;2023-06-22T11:32:15;29.20;68.05
71039;SHT30;58692;43.212;27.908;2023-06-22T11:34:40;29.02;68.45
71039;SHT30;58692;43.212;27.908;2023-06-22T11:37:06;29.00;68.54
71039;SHT30;58692;43.212;27.908;2023-06-22T11:39:31;29.44;67.44
71039;SHT30;58692;43.212;27.908;2023-06-22T11:41:57;28.87;69.35
71039;SHT30;58692;43.212;27.908;2023-06-22T11:44:22;29.33;68.65
71039;SHT30;58692;43.212;27.908;2023-06-22T11:46:48;29.46;68.19
71039;SHT30;58692;43.212;27.908;2023-06-22T11:49:14;28.93;69.63
71039;SHT30;58692;43.212;27.908;2023-06-22T11:51:39;28.36;70.10
71039;SHT30;58692;43.212;27.908;2023-06-22T11:54:05;28.14;70.77
71039;SHT30;58692;43.212;27.908;2023-06-22T11:56:30;28.34;71.17
71039;SHT30;58692;43.212;27.908;2023-06-22T11:58:57;28.11;71.20
71039;SHT30;58692;43.212;27.908;2023-06-22T12:01:22;27.90;72.55
71039;SHT30;58692;43.212;27.908;2023-06-22T12:03:48;28.38;71.42
71039;SHT30;58692;43.212;27.908;2023-06-22T12:06:13;27.71;72.63
71039;SHT30;58692;43.212;27.908;2023-06-22T12:08:39;27.98;72.34
71039;SHT30;58692;43.212;27.908;2023-06-22T12:11:04;27.95;72.79
71039;SHT30;58692;43.212;27.908;2023-06-22T12:13:29;27.43;73.95
71039;SHT30;58692;43.212;27.908;2023-06-22T12:15:55;26.44;77.38
71039;SHT30;58692;43.212;27.908;2023-06-22T12:18:20;26.01;78.14
71039;SHT30;58692;43.212;27.908;2023-06-22T12:20:46;26.18;78.18
71039;SHT30;58692;43.212;27.908;2023-06-22T12:23:12;26.20;78.80
71039;SHT30;58692;43.212;27.908;2023-06-22T12:25:37;25.86;80.34
71039;SHT30;58692;43.212;27.908;2023-06-22T12:28:03;26.02;79.43
71039;SHT30;58692;43.212;27.908;2023-06-22T12:30:30;25.96;79.72
71039;SHT30;58692;43.212;27.908;2023-06-22T12:32:55;26.22;79.28
71039;SHT30;58692;43.212;27.908;2023-06-22T12:35:21;25.90;80.06
71039;SHT30;58692;43.212;27.908;2023-06-22T12:37:47;25.93;80.16
71039;SHT30;58692;43.212;27.908;2023-06-22T12:40:12;25.88;80.70
71039;SHT30;58692;43.212;27.908;2023-06-22T12:42:38;25.80;78.20
71039;SHT30;58692;43.212;27.908;2023-06-22T12:45:23;26.11;78.98
71039;SHT30;58692;43.212;27.908;2023-06-22T12:47:50;26.11;78.87
71039;SHT30;58692;43.212;27.908;2023-06-22T12:50:15;26.04;78.05
71039;SHT30;58692;43.212;27.908;2023-06-22T12:52:41;26.08;78.35
71039;SHT30;58692;43.212;27.908;2023-06-22T12:55:07;26.27;78.15
71039;SHT30;58692;43.212;27.908;2023-06-22T12:57:32;26.38;76.33
71039;SHT30;58692;43.212;27.908;2023-06-22T12:59:58;26.49;77.11
71039;SHT30;58692;43.212;27.908;2023-06-22T13:02:25;26.28;77.71
71039;SHT30;58692;43.212;27.908;2023-06-22T13:04:51;26.31;77.46
71039;SHT30;58692;43.212;27.908;2023-06-22T13:07:16;26.22;75.65
71039;SHT30;58692;43.212;27.908;2023-06-22T13:09:42;26.42;75.33
71039;SHT30;58692;43.212;27.908;2023-06-22T13:12:08;26.62;74.70
71039;SHT30;58692;43.212;27.908;2023-06-22T13:14:33;26.69;73.40
71039;SHT30;58692;43.212;27.908;2023-06-22T13:16:59;26.76;74.18
71039;SHT30;58692;43.212;27.908;2023-06-22T13:19:24;26.41;73.01
71039;SHT30;58692;43.212;27.908;2023-06-22T13:21:51;26.27;72.71
71039;SHT30;58692;43.212;27.908;2023-06-22T13:24:16;26.21;74.18
71039;SHT30;58692;43.212;27.908;2023-06-22T13:26:42;26.48;70.41
71039;SHT30;58692;43.212;27.908;2023-06-22T13:29:07;26.27;71.62
71039;SHT30;58692;43.212;27.908;2023-06-22T13:31:32;26.20;70.36
71039;SHT30;58692;43.212;27.908;2023-06-22T13:33:58;26.01;69.56
71039;SHT30;58692;43.212;27.908;2023-06-22T13:36:23;25.91;73.89
71039;SHT30;58692;43.212;27.908;2023-06-22T13:38:49;25.93;71.64
71039;SHT30;58692;43.212;27.908;2023-06-22T13:41:14;25.84;73.44
71039;SHT30;58692;43.212;27.908;2023-06-22T13:43:40;26.22;72.41
71039;SHT30;58692;43.212;27.908;2023-06-22T13:46:05;26.32;73.18
71039;SHT30;58692;43.212;27.908;2023-06-22T13:48:31;26.40;72.59
71039;SHT30;58692;43.212;27.908;2023-06-22T13:50:56;26.35;73.13
71039;SHT30;58692;43.212;27.908;2023-06-22T13:53:24;26.31;73.73
71039;SHT30;58692;43.212;27.908;2023-06-22T13:55:49;26.22;70.22
71039;SHT30;58692;43.212;27.908;2023-06-22T13:58:15;26.11;71.54
71039;SHT30;58692;43.212;27.908;2023-06-22T14:00:41;26.02;71.62
71039;SHT30;58692;43.212;27.908;2023-06-22T14:03:06;25.79;71.77
71039;SHT30;58692;43.212;27.908;2023-06-22T14:05:32;25.69;73.82
71039;SHT30;58692;43.212;27.908;2023-06-22T14:07:57;25.73;74.59
71039;SHT30;58692;43.212;27.908;2023-06-22T14:10:23;26.16;73.07
71039;SHT30;58692;43.212;27.908;2023-06-22T14:12:48;26.17;73.70
71039;SHT30;58692;43.212;27.908;2023-06-22T14:15:14;26.22;73.87
71039;SHT30;58692;43.212;27.908;2023-06-22T14:17:40;26.10;74.70
71039;SHT30;58692;43.212;27.908;2023-06-22T14:20:06;25.96;74.89
71039;SHT30;58692;43.212;27.908;2023-06-22T14:22:33;25.93;74.61
71039;SHT30;58692;43.212;27.908;2023-06-22T14:25:00;25.90;75.39
71039;SHT30;58692;43.212;27.908;2023-06-22T14:27:27;26.05;75.55
71039;SHT30;58692;43.212;27.908;2023-06-22T14:29:52;25.84;75.47
71039;SHT30;58692;43.212;27.908;2023-06-22T14:32:18;25.97;75.98
71039;SHT30;58692;43.212;27.908;2023-06-22T14:34:43;25.80;76.60
71039;SHT30;58692;43.212;27.908;2023-06-22T14:37:09;25.70;77.46
71039;SHT30;58692;43.212;27.908;2023-06-22T14:39:35;25.53;77.99
71039;SHT30;58692;43.212;27.908;2023-06-22T14:42:01;25.65;77.62
71039;SHT30;58692;43.212;27.908;2023-06-22T14:44:29;25.56;78.03
71039;SHT30;58692;43.212;27.908;2023-06-22T14:46:55;25.63;78.46
71039;SHT30;58692;43.212;27.908;2023-06-22T14:49:20;25.70;78.19
71039;SHT30;58692;43.212;27.908;2023-06-22T14:51:46;25.67;78.01
71039;SHT30;58692;43.212;27.908;2023-06-22T14:54:11;25.88;77.57
71039;SHT30;58692;43.212;27.908;2023-06-22T14:56:37;25.90;76.82
71039;SHT30;58692;43.212;27.908;2023-06-22T14:59:02;25.83;76.36
71039;SHT30;58692;43.212;27.908;2023-06-22T15:01:28;25.65;76.63
71039;SHT30;58692;43.212;27.908;2023-06-22T15:03:53;25.60;77.70
71039;SHT30;58692;43.212;27.908;2023-06-22T15:06:18;25.66;77.76
71039;SHT30;58692;43.212;27.908;2023-06-22T15:08:44;25.59;78.37
71039;SHT30;58692;43.212;27.908;2023-06-22T15:11:10;25.62;78.12
71039;SHT30;58692;43.212;27.908;2023-06-22T15:13:39;25.57;78.75
71039;SHT30;58692;43.212;27.908;2023-06-22T15:16:04;25.66;78.95